sensor_id;sensor_type;location;lat;lon;timestamp;P1;durP1;ratioP1;P2;durP2;ratioP2
68353;SDS011;55274;43.060;25.618;2023-06-26T00:01:16;11.70;;;6.47;;
68353;SDS011;55274;43.060;25.618;2023-06-26T00:03:42;15.07;;;6.57;;
68353;SDS011;55274;43.060;25.618;2023-06-26T00:06:08;9.02;;;4.45;;
68353;SDS011;55274;43.060;25.618;2023-06-26T00:08:33;9.65;;;5.35;;
68353;SDS011;55274;43.060;25.618;2023-06-26T00:10:59;8.13;;;4.45;;
68353;SDS011;55274;43.060;25.618;2023-06-26T00:13:25;10.50;;;4.43;;
68353;SDS011;55274;43.060;25.618;2023-06-26T00:15:50;16.33;;;8.30;;
68353;SDS011;55274;43.060;25.618;2023-06-26T00:18:16;7.97;;;3.92;;
68353;SDS011;55274;43.060;25.618;2023-06-26T00:20:42;13.10;;;4.95;;
68353;SDS011;55274;43.060;25.618;2023-06-26T00:23:08;8.18;;;4.47;;
68353;SDS011;55274;43.060;25.618;2023-06-26T00:25:34;15.07;;;8.85;;
68353;SDS011;55274;43.060;25.618;2023-06-26T00:27:59;17.60;;;8.05;;
68353;SDS011;55274;43.060;25.618;2023-06-26T00:30:26;8.05;;;3.55;;
68353;SDS011;55274;43.060;25.618;2023-06-26T00:32:52;4.63;;;2.85;;
68353;SDS011;55274;43.060;25.618;2023-06-26T00:35:17;3.78;;;2.40;;
68353;SDS011;55274;43.060;25.618;2023-06-26T00:37:43;8.23;;;2.80;;
68353;SDS011;55274;43.060;25.618;2023-06-26T00:40:09;9.48;;;5.30;;
68353;SDS011;55274;43.060;25.618;2023-06-26T00:42:35;3.67;;;2.22;;
68353;SDS011;55274;43.060;25.618;2023-06-26T00:45:01;3.13;;;1.90;;
68353;SDS011;55274;43.060;25.618;2023-06-26T00:47:27;5.07;;;1.02;;
68353;SDS011;55274;43.060;25.618;2023-06-26T00:49:54;3.67;;;1.58;;
68353;SDS011;55274;43.060;25.618;2023-06-26T00:52:20;2.30;;;1.58;;
68353;SDS011;55274;43.060;25.618;2023-06-26T00:54:46;3.13;;;1.45;;
68353;SDS011;55274;43.060;25.618;2023-06-26T00:57:13;7.63;;;2.80;;
68353;SDS011;55274;43.060;25.618;2023-06-26T00:59:39;5.50;;;2.30;;
68353;SDS011;55274;43.060;25.618;2023-06-26T01:02:05;3.42;;;0.82;;
68353;SDS011;55274;43.060;25.618;2023-06-26T01:04:31;1.30;;;0.80;;
68353;SDS011;55274;43.060;25.618;2023-06-26T01:06:57;2.15;;;0.90;;
68353;SDS011;55274;43.060;25.618;2023-06-26T01:09:24;4.18;;;1.00;;
68353;SDS011;55274;43.060;25.618;2023-06-26T01:11:51;1.55;;;0.98;;
68353;SDS011;55274;43.060;25.618;2023-06-26T01:14:17;1.98;;;1.50;;
68353;SDS011;55274;43.060;25.618;2023-06-26T01:16:43;3.35;;;1.45;;
68353;SDS011;55274;43.060;25.618;2023-06-26T01:19:18;3.58;;;1.55;;
68353;SDS011;55274;43.060;25.618;2023-06-26T01:21:50;1.70;;;1.23;;
68353;SDS011;55274;43.060;25.618;2023-06-26T01:24:22;5.88;;;1.30;;
68353;SDS011;55274;43.060;25.618;2023-06-26T01:26:52;6.28;;;2.58;;
68353;SDS011;55274;43.060;25.618;2023-06-26T01:29:19;4.38;;;2.50;;
68353;SDS011;55274;43.060;25.618;2023-06-26T01:31:48;6.60;;;3.13;;
68353;SDS011;55274;43.060;25.618;2023-06-26T01:34:17;11.32;;;4.22;;
68353;SDS011;55274;43.060;25.618;2023-06-26T01:36:44;4.00;;;2.47;;
68353;SDS011;55274;43.060;25.618;2023-06-26T01:39:12;6.20;;;1.95;;
68353;SDS011;55274;43.060;25.618;2023-06-26T01:46:59;4.82;;;1.80;;
68353;SDS011;55274;43.060;25.618;2023-06-26T01:49:30;7.95;;;3.00;;
68353;SDS011;55274;43.060;25.618;2023-06-26T01:58:01;9.45;;;4.35;;
68353;SDS011;55274;43.060;25.618;2023-06-26T02:00:27;6.45;;;3.72;;
68353;SDS011;55274;43.060;25.618;2023-06-26T02:02:53;7.40;;;3.95;;
68353;SDS011;55274;43.060;25.618;2023-06-26T02:05:19;4.38;;;2.45;;
68353;SDS011;55274;43.060;25.618;2023-06-26T02:07:45;7.95;;;3.60;;
68353;SDS011;55274;43.060;25.618;2023-06-26T02:10:11;10.97;;;5.47;;
68353;SDS011;55274;43.060;25.618;2023-06-26T02:12:37;11.25;;;5.43;;
68353;SDS011;55274;43.060;25.618;2023-06-26T02:15:03;12.90;;;7.07;;
68353;SDS011;55274;43.060;25.618;2023-06-26T02:17:30;5.13;;;2.92;;
68353;SDS011;55274;43.060;25.618;2023-06-26T02:19:55;6.80;;;3.70;;
68353;SDS011;55274;43.060;25.618;2023-06-26T02:22:21;8.65;;;4.68;;
68353;SDS011;55274;43.060;25.618;2023-06-26T02:24:47;18.15;;;9.32;;
68353;SDS011;55274;43.060;25.618;2023-06-26T02:27:13;19.00;;;9.00;;
68353;SDS011;55274;43.060;25.618;2023-06-26T02:29:39;20.90;;;11.65;;
68353;SDS011;55274;43.060;25.618;2023-06-26T02:32:05;21.27;;;12.05;;
68353;SDS011;55274;43.060;25.618;2023-06-26T02:34:32;13.30;;;8.07;;
68353;SDS011;55274;43.060;25.618;2023-06-26T02:36:58;15.35;;;7.00;;
68353;SDS011;55274;43.060;25.618;2023-06-26T02:39:25;24.88;;;13.02;;
68353;SDS011;55274;43.060;25.618;2023-06-26T02:41:51;16.83;;;9.52;;
68353;SDS011;55274;43.060;25.618;2023-06-26T02:44:17;15.05;;;9.10;;
68353;SDS011;55274;43.060;25.618;2023-06-26T02:46:43;16.65;;;8.75;;
68353;SDS011;55274;43.060;25.618;2023-06-26T02:49:09;13.30;;;7.78;;
68353;SDS011;55274;43.060;25.618;2023-06-26T02:51:35;14.82;;;7.07;;
68353;SDS011;55274;43.060;25.618;2023-06-26T02:54:01;6.18;;;4.32;;
68353;SDS011;55274;43.060;25.618;2023-06-26T02:56:27;14.20;;;9.18;;
68353;SDS011;55274;43.060;25.618;2023-06-26T02:58:54;14.45;;;7.72;;
68353;SDS011;55274;43.060;25.618;2023-06-26T03:01:20;16.70;;;9.30;;
68353;SDS011;55274;43.060;25.618;2023-06-26T03:03:46;19.27;;;10.73;;
68353;SDS011;55274;43.060;25.618;2023-06-26T03:06:12;8.45;;;4.35;;
68353;SDS011;55274;43.060;25.618;2023-06-26T03:08:38;13.65;;;7.68;;
68353;SDS011;55274;43.060;25.618;2023-06-26T03:11:05;13.27;;;7.65;;
68353;SDS011;55274;43.060;25.618;2023-06-26T03:13:31;11.20;;;7.47;;
68353;SDS011;55274;43.060;25.618;2023-06-26T03:15:58;10.25;;;5.93;;
68353;SDS011;55274;43.060;25.618;2023-06-26T03:18:23;11.02;;;6.05;;
68353;SDS011;55274;43.060;25.618;2023-06-26T03:20:49;8.48;;;4.97;;
68353;SDS011;55274;43.060;25.618;2023-06-26T03:23:15;16.27;;;9.13;;
68353;SDS011;55274;43.060;25.618;2023-06-26T03:25:41;15.02;;;8.93;;
68353;SDS011;55274;43.060;25.618;2023-06-26T03:28:06;11.50;;;6.90;;
68353;SDS011;55274;43.060;25.618;2023-06-26T03:30:32;12.85;;;6.65;;
68353;SDS011;55274;43.060;25.618;2023-06-26T03:32:58;9.90;;;6.20;;
68353;SDS011;55274;43.060;25.618;2023-06-26T03:35:24;10.80;;;5.70;;
68353;SDS011;55274;43.060;25.618;2023-06-26T03:37:49;15.05;;;7.47;;
68353;SDS011;55274;43.060;25.618;2023-06-26T03:40:15;12.10;;;7.40;;
68353;SDS011;55274;43.060;25.618;2023-06-26T03:42:42;14.32;;;7.13;;
68353;SDS011;55274;43.060;25.618;2023-06-26T03:45:07;12.20;;;5.07;;
68353;SDS011;55274;43.060;25.618;2023-06-26T03:47:33;5.82;;;3.63;;
68353;SDS011;55274;43.060;25.618;2023-06-26T03:49:59;6.28;;;4.25;;
68353;SDS011;55274;43.060;25.618;2023-06-26T03:52:25;8.05;;;4.18;;
68353;SDS011;55274;43.060;25.618;2023-06-26T03:54:50;8.35;;;4.32;;
68353;SDS011;55274;43.060;25.618;2023-06-26T03:57:16;5.70;;;3.80;;
68353;SDS011;55274;43.060;25.618;2023-06-26T03:59:42;10.88;;;5.82;;
68353;SDS011;55274;43.060;25.618;2023-06-26T04:02:08;12.05;;;5.85;;
68353;SDS011;55274;43.060;25.618;2023-06-26T04:04:33;8.10;;;4.35;;
68353;SDS011;55274;43.060;25.618;2023-06-26T04:06:59;9.45;;;4.28;;
68353;SDS011;55274;43.060;25.618;2023-06-26T04:09:25;10.90;;;4.70;;
68353;SDS011;55274;43.060;25.618;2023-06-26T04:11:51;10.98;;;5.53;;
68353;SDS011;55274;43.060;25.618;2023-06-26T04:14:17;10.30;;;5.43;;
68353;SDS011;55274;43.060;25.618;2023-06-26T04:16:43;11.52;;;5.65;;
68353;SDS011;55274;43.060;25.618;2023-06-26T04:19:09;10.02;;;5.50;;
68353;SDS011;55274;43.060;25.618;2023-06-26T04:21:35;8.13;;;4.75;;
68353;SDS011;55274;43.060;25.618;2023-06-26T04:24:01;10.23;;;5.72;;
68353;SDS011;55274;43.060;25.618;2023-06-26T04:26:26;11.05;;;5.50;;
68353;SDS011;55274;43.060;25.618;2023-06-26T04:28:53;12.07;;;6.00;;
68353;SDS011;55274;43.060;25.618;2023-06-26T04:31:19;11.90;;;5.78;;
68353;SDS011;55274;43.060;25.618;2023-06-26T04:33:45;8.25;;;3.72;;
68353;SDS011;55274;43.060;25.618;2023-06-26T04:36:16;10.93;;;5.03;;
68353;SDS011;55274;43.060;25.618;2023-06-26T04:38:42;11.93;;;6.63;;
68353;SDS011;55274;43.060;25.618;2023-06-26T04:41:08;13.85;;;5.93;;
68353;SDS011;55274;43.060;25.618;2023-06-26T04:43:34;11.88;;;6.68;;
68353;SDS011;55274;43.060;25.618;2023-06-26T04:45:59;12.48;;;6.60;;
68353;SDS011;55274;43.060;25.618;2023-06-26T04:48:27;14.95;;;6.65;;
68353;SDS011;55274;43.060;25.618;2023-06-26T04:50:53;13.80;;;7.68;;
68353;SDS011;55274;43.060;25.618;2023-06-26T04:53:20;9.55;;;6.63;;
68353;SDS011;55274;43.060;25.618;2023-06-26T04:55:47;12.00;;;6.03;;
68353;SDS011;55274;43.060;25.618;2023-06-26T04:58:12;11.15;;;6.47;;
68353;SDS011;55274;43.060;25.618;2023-06-26T05:00:38;11.88;;;6.60;;
68353;SDS011;55274;43.060;25.618;2023-06-26T05:03:16;13.85;;;7.70;;
68353;SDS011;55274;43.060;25.618;2023-06-26T05:05:43;15.75;;;8.02;;
68353;SDS011;55274;43.060;25.618;2023-06-26T05:08:20;11.10;;;7.22;;
68353;SDS011;55274;43.060;25.618;2023-06-26T05:10:48;13.32;;;8.20;;
68353;SDS011;55274;43.060;25.618;2023-06-26T05:13:14;14.60;;;8.52;;
68353;SDS011;55274;43.060;25.618;2023-06-26T05:15:43;14.48;;;8.43;;
68353;SDS011;55274;43.060;25.618;2023-06-26T05:18:09;16.10;;;9.43;;
68353;SDS011;55274;43.060;25.618;2023-06-26T05:20:35;15.63;;;9.10;;
68353;SDS011;55274;43.060;25.618;2023-06-26T05:23:02;10.98;;;7.97;;
68353;SDS011;55274;43.060;25.618;2023-06-26T05:25:31;11.80;;;7.82;;
68353;SDS011;55274;43.060;25.618;2023-06-26T05:27:59;12.00;;;7.45;;
68353;SDS011;55274;43.060;25.618;2023-06-26T05:30:25;13.88;;;8.73;;
68353;SDS011;55274;43.060;25.618;2023-06-26T05:32:53;13.68;;;9.02;;
68353;SDS011;55274;43.060;25.618;2023-06-26T05:35:22;15.02;;;8.40;;
68353;SDS011;55274;43.060;25.618;2023-06-26T05:37:49;13.90;;;7.97;;
68353;SDS011;55274;43.060;25.618;2023-06-26T05:40:18;12.75;;;7.90;;
68353;SDS011;55274;43.060;25.618;2023-06-26T05:42:44;14.13;;;8.07;;
68353;SDS011;55274;43.060;25.618;2023-06-26T05:45:10;13.23;;;8.57;;
68353;SDS011;55274;43.060;25.618;2023-06-26T05:47:37;15.40;;;8.43;;
68353;SDS011;55274;43.060;25.618;2023-06-26T05:50:03;14.73;;;8.60;;
68353;SDS011;55274;43.060;25.618;2023-06-26T05:52:29;11.63;;;7.05;;
68353;SDS011;55274;43.060;25.618;2023-06-26T05:54:58;13.57;;;7.80;;
68353;SDS011;55274;43.060;25.618;2023-06-26T05:57:26;15.38;;;8.57;;
68353;SDS011;55274;43.060;25.618;2023-06-26T05:59:53;12.43;;;7.85;;
68353;SDS011;55274;43.060;25.618;2023-06-26T06:02:19;11.30;;;6.65;;
68353;SDS011;55274;43.060;25.618;2023-06-26T06:04:45;13.27;;;7.35;;
68353;SDS011;55274;43.060;25.618;2023-06-26T06:07:11;11.75;;;7.28;;
68353;SDS011;55274;43.060;25.618;2023-06-26T06:09:37;15.30;;;7.82;;
68353;SDS011;55274;43.060;25.618;2023-06-26T06:12:06;12.05;;;7.03;;
68353;SDS011;55274;43.060;25.618;2023-06-26T06:14:33;11.00;;;7.25;;
68353;SDS011;55274;43.060;25.618;2023-06-26T06:16:59;10.82;;;7.55;;
68353;SDS011;55274;43.060;25.618;2023-06-26T06:19:25;14.18;;;7.93;;
68353;SDS011;55274;43.060;25.618;2023-06-26T06:21:51;11.43;;;6.70;;
68353;SDS011;55274;43.060;25.618;2023-06-26T06:24:17;13.60;;;7.30;;
68353;SDS011;55274;43.060;25.618;2023-06-26T06:26:43;14.20;;;7.53;;
68353;SDS011;55274;43.060;25.618;2023-06-26T06:29:09;10.85;;;7.05;;
68353;SDS011;55274;43.060;25.618;2023-06-26T06:31:35;12.15;;;7.38;;
68353;SDS011;55274;43.060;25.618;2023-06-26T06:34:01;13.18;;;6.60;;
68353;SDS011;55274;43.060;25.618;2023-06-26T06:36:27;10.93;;;6.72;;
68353;SDS011;55274;43.060;25.618;2023-06-26T06:38:53;13.07;;;7.00;;
68353;SDS011;55274;43.060;25.618;2023-06-26T06:41:19;8.70;;;6.25;;
68353;SDS011;55274;43.060;25.618;2023-06-26T06:43:45;9.68;;;7.05;;
68353;SDS011;55274;43.060;25.618;2023-06-26T06:46:11;9.05;;;6.00;;
68353;SDS011;55274;43.060;25.618;2023-06-26T06:48:37;8.18;;;5.85;;
68353;SDS011;55274;43.060;25.618;2023-06-26T06:51:03;11.88;;;5.20;;
68353;SDS011;55274;43.060;25.618;2023-06-26T06:53:29;13.32;;;6.38;;
68353;SDS011;55274;43.060;25.618;2023-06-26T06:55:55;9.02;;;6.28;;
68353;SDS011;55274;43.060;25.618;2023-06-26T06:58:21;11.43;;;5.68;;
68353;SDS011;55274;43.060;25.618;2023-06-26T07:00:48;8.05;;;4.68;;
68353;SDS011;55274;43.060;25.618;2023-06-26T07:03:14;7.75;;;5.22;;
68353;SDS011;55274;43.060;25.618;2023-06-26T07:05:41;9.57;;;5.13;;
68353;SDS011;55274;43.060;25.618;2023-06-26T07:08:07;9.38;;;4.53;;
68353;SDS011;55274;43.060;25.618;2023-06-26T07:10:33;7.22;;;4.80;;
68353;SDS011;55274;43.060;25.618;2023-06-26T07:12:59;6.45;;;4.57;;
68353;SDS011;55274;43.060;25.618;2023-06-26T07:15:25;9.50;;;4.78;;
68353;SDS011;55274;43.060;25.618;2023-06-26T07:17:51;6.90;;;4.82;;
68353;SDS011;55274;43.060;25.618;2023-06-26T07:20:16;8.35;;;4.47;;
68353;SDS011;55274;43.060;25.618;2023-06-26T07:22:42;8.68;;;5.10;;
68353;SDS011;55274;43.060;25.618;2023-06-26T07:25:10;13.65;;;5.22;;
68353;SDS011;55274;43.060;25.618;2023-06-26T07:27:36;5.88;;;4.43;;
68353;SDS011;55274;43.060;25.618;2023-06-26T07:30:03;8.25;;;5.07;;
68353;SDS011;55274;43.060;25.618;2023-06-26T07:32:29;8.57;;;4.75;;
68353;SDS011;55274;43.060;25.618;2023-06-26T07:34:55;6.13;;;4.55;;
68353;SDS011;55274;43.060;25.618;2023-06-26T07:37:21;7.35;;;4.65;;
68353;SDS011;55274;43.060;25.618;2023-06-26T07:39:48;8.40;;;4.53;;
68353;SDS011;55274;43.060;25.618;2023-06-26T07:42:14;9.73;;;4.93;;
68353;SDS011;55274;43.060;25.618;2023-06-26T07:44:41;11.07;;;4.70;;
68353;SDS011;55274;43.060;25.618;2023-06-26T07:47:08;12.15;;;5.50;;
68353;SDS011;55274;43.060;25.618;2023-06-26T07:49:34;8.13;;;4.22;;
68353;SDS011;55274;43.060;25.618;2023-06-26T07:52:00;8.82;;;4.85;;
68353;SDS011;55274;43.060;25.618;2023-06-26T07:54:26;8.27;;;4.57;;
68353;SDS011;55274;43.060;25.618;2023-06-26T07:57:02;6.32;;;4.47;;
68353;SDS011;55274;43.060;25.618;2023-06-26T07:59:36;8.68;;;4.60;;
68353;SDS011;55274;43.060;25.618;2023-06-26T08:02:03;7.55;;;3.92;;
68353;SDS011;55274;43.060;25.618;2023-06-26T08:04:29;8.30;;;5.15;;
68353;SDS011;55274;43.060;25.618;2023-06-26T08:06:57;7.38;;;4.70;;
68353;SDS011;55274;43.060;25.618;2023-06-26T08:09:25;7.38;;;4.68;;
68353;SDS011;55274;43.060;25.618;2023-06-26T08:11:52;10.02;;;4.43;;
68353;SDS011;55274;43.060;25.618;2023-06-26T08:14:18;7.10;;;4.50;;
68353;SDS011;55274;43.060;25.618;2023-06-26T08:16:47;7.40;;;4.68;;
68353;SDS011;55274;43.060;25.618;2023-06-26T08:19:14;7.15;;;4.40;;
68353;SDS011;55274;43.060;25.618;2023-06-26T08:21:41;9.15;;;4.47;;
68353;SDS011;55274;43.060;25.618;2023-06-26T08:24:10;8.65;;;4.90;;
68353;SDS011;55274;43.060;25.618;2023-06-26T08:26:44;7.00;;;4.47;;
68353;SDS011;55274;43.060;25.618;2023-06-26T08:29:12;7.85;;;4.45;;
68353;SDS011;55274;43.060;25.618;2023-06-26T08:31:38;7.60;;;4.40;;
68353;SDS011;55274;43.060;25.618;2023-06-26T08:34:07;7.57;;;4.28;;
68353;SDS011;55274;43.060;25.618;2023-06-26T08:36:36;7.28;;;4.25;;
68353;SDS011;55274;43.060;25.618;2023-06-26T08:39:02;6.68;;;4.03;;
68353;SDS011;55274;43.060;25.618;2023-06-26T08:41:30;7.25;;;3.80;;
68353;SDS011;55274;43.060;25.618;2023-06-26T08:43:57;7.72;;;4.57;;
68353;SDS011;55274;43.060;25.618;2023-06-26T08:46:23;8.55;;;4.55;;
68353;SDS011;55274;43.060;25.618;2023-06-26T08:48:54;9.63;;;4.80;;
68353;SDS011;55274;43.060;25.618;2023-06-26T09:10:28;5.15;;;3.40;;
68353;SDS011;55274;43.060;25.618;2023-06-26T09:12:56;12.43;;;4.18;;
68353;SDS011;55274;43.060;25.618;2023-06-26T09:15:23;9.45;;;4.40;;
68353;SDS011;55274;43.060;25.618;2023-06-26T09:17:49;7.00;;;3.70;;
68353;SDS011;55274;43.060;25.618;2023-06-26T09:20:15;8.18;;;3.95;;
68353;SDS011;55274;43.060;25.618;2023-06-26T09:22:42;8.40;;;3.58;;
68353;SDS011;55274;43.060;25.618;2023-06-26T09:25:12;6.75;;;4.03;;
68353;SDS011;55274;43.060;25.618;2023-06-26T09:27:38;6.03;;;3.80;;
68353;SDS011;55274;43.060;25.618;2023-06-26T09:30:05;6.82;;;4.00;;
68353;SDS011;55274;43.060;25.618;2023-06-26T09:32:36;6.32;;;3.75;;
68353;SDS011;55274;43.060;25.618;2023-06-26T09:35:02;5.72;;;3.58;;
68353;SDS011;55274;43.060;25.618;2023-06-26T09:37:28;7.28;;;4.13;;
68353;SDS011;55274;43.060;25.618;2023-06-26T09:39:55;7.88;;;4.25;;
68353;SDS011;55274;43.060;25.618;2023-06-26T09:42:21;8.60;;;4.30;;
68353;SDS011;55274;43.060;25.618;2023-06-26T09:44:47;10.05;;;4.75;;
68353;SDS011;55274;43.060;25.618;2023-06-26T09:47:17;11.07;;;4.72;;
68353;SDS011;55274;43.060;25.618;2023-06-26T09:49:44;12.45;;;6.22;;
68353;SDS011;55274;43.060;25.618;2023-06-26T09:52:13;16.73;;;9.02;;
68353;SDS011;55274;43.060;25.618;2023-06-26T09:54:41;14.52;;;8.43;;
68353;SDS011;55274;43.060;25.618;2023-06-26T09:57:15;21.73;;;9.18;;
68353;SDS011;55274;43.060;25.618;2023-06-26T09:59:42;12.40;;;6.68;;
68353;SDS011;55274;43.060;25.618;2023-06-26T10:02:10;12.23;;;6.55;;
68353;SDS011;55274;43.060;25.618;2023-06-26T10:04:36;10.05;;;5.50;;
68353;SDS011;55274;43.060;25.618;2023-06-26T10:07:06;9.13;;;4.68;;
68353;SDS011;55274;43.060;25.618;2023-06-26T10:09:42;6.03;;;4.65;;
68353;SDS011;55274;43.060;25.618;2023-06-26T10:12:28;7.38;;;4.95;;
68353;SDS011;55274;43.060;25.618;2023-06-26T10:15:03;14.13;;;5.05;;
68353;SDS011;55274;43.060;25.618;2023-06-26T10:17:35;8.23;;;5.57;;
68353;SDS011;55274;43.060;25.618;2023-06-26T10:20:02;13.77;;;7.03;;
68353;SDS011;55274;43.060;25.618;2023-06-26T10:22:31;22.45;;;8.68;;
68353;SDS011;55274;43.060;25.618;2023-06-26T10:25:00;12.43;;;5.20;;
68353;SDS011;55274;43.060;25.618;2023-06-26T10:27:32;14.98;;;6.57;;
68353;SDS011;55274;43.060;25.618;2023-06-26T10:30:06;15.85;;;5.32;;
68353;SDS011;55274;43.060;25.618;2023-06-26T10:32:38;11.65;;;4.60;;
68353;SDS011;55274;43.060;25.618;2023-06-26T10:35:05;34.67;;;5.55;;
68353;SDS011;55274;43.060;25.618;2023-06-26T10:37:48;9.77;;;4.90;;
68353;SDS011;55274;43.060;25.618;2023-06-26T10:40:52;12.23;;;4.60;;
68353;SDS011;55274;43.060;25.618;2023-06-26T10:44:33;14.75;;;5.10;;
68353;SDS011;55274;43.060;25.618;2023-06-26T10:46:50;9.48;;;4.57;;
68353;SDS011;55274;43.060;25.618;2023-06-26T10:49:21;15.30;;;4.22;;
68353;SDS011;55274;43.060;25.618;2023-06-26T10:52:00;25.23;;;5.03;;
68353;SDS011;55274;43.060;25.618;2023-06-26T10:54:30;10.10;;;4.28;;
68353;SDS011;55274;43.060;25.618;2023-06-26T10:56:59;12.80;;;4.68;;
68353;SDS011;55274;43.060;25.618;2023-06-26T10:59:27;15.98;;;4.82;;
68353;SDS011;55274;43.060;25.618;2023-06-26T11:02:01;7.35;;;5.13;;
68353;SDS011;55274;43.060;25.618;2023-06-26T11:04:45;8.38;;;4.28;;
68353;SDS011;55274;43.060;25.618;2023-06-26T11:15:03;5.80;;;3.42;;
68353;SDS011;55274;43.060;25.618;2023-06-26T11:17:33;5.10;;;3.33;;
68353;SDS011;55274;43.060;25.618;2023-06-26T11:20:00;9.15;;;5.38;;
68353;SDS011;55274;43.060;25.618;2023-06-26T11:22:26;22.83;;;8.60;;
68353;SDS011;55274;43.060;25.618;2023-06-26T11:24:53;8.18;;;3.70;;
68353;SDS011;55274;43.060;25.618;2023-06-26T11:27:24;6.28;;;3.28;;
68353;SDS011;55274;43.060;25.618;2023-06-26T11:29:49;6.97;;;3.67;;
68353;SDS011;55274;43.060;25.618;2023-06-26T11:32:15;9.35;;;4.60;;
68353;SDS011;55274;43.060;25.618;2023-06-26T11:34:41;6.05;;;3.78;;
68353;SDS011;55274;43.060;25.618;2023-06-26T11:37:08;7.60;;;3.70;;
68353;SDS011;55274;43.060;25.618;2023-06-26T11:39:37;4.95;;;3.20;;
68353;SDS011;55274;43.060;25.618;2023-06-26T11:42:04;6.78;;;3.60;;
68353;SDS011;55274;43.060;25.618;2023-06-26T11:44:30;21.98;;;7.65;;
68353;SDS011;55274;43.060;25.618;2023-06-26T11:46:57;7.82;;;3.70;;
68353;SDS011;55274;43.060;25.618;2023-06-26T11:49:23;7.93;;;4.10;;
68353;SDS011;55274;43.060;25.618;2023-06-26T11:51:51;5.57;;;3.42;;
68353;SDS011;55274;43.060;25.618;2023-06-26T11:54:26;8.05;;;3.47;;
68353;SDS011;55274;43.060;25.618;2023-06-26T11:56:56;7.15;;;3.30;;
68353;SDS011;55274;43.060;25.618;2023-06-26T11:59:23;5.75;;;3.22;;
68353;SDS011;55274;43.060;25.618;2023-06-26T12:01:50;6.88;;;3.40;;
68353;SDS011;55274;43.060;25.618;2023-06-26T12:04:19;7.15;;;3.15;;
68353;SDS011;55274;43.060;25.618;2023-06-26T12:07:02;6.05;;;3.55;;
68353;SDS011;55274;43.060;25.618;2023-06-26T12:09:30;6.50;;;3.20;;
68353;SDS011;55274;43.060;25.618;2023-06-26T12:11:58;5.43;;;3.50;;
68353;SDS011;55274;43.060;25.618;2023-06-26T12:14:25;6.93;;;3.83;;
68353;SDS011;55274;43.060;25.618;2023-06-26T12:16:53;4.78;;;2.90;;
68353;SDS011;55274;43.060;25.618;2023-06-26T12:19:26;5.32;;;2.67;;
68353;SDS011;55274;43.060;25.618;2023-06-26T12:21:54;7.65;;;2.85;;
68353;SDS011;55274;43.060;25.618;2023-06-26T12:24:57;15.55;;;4.03;;
68353;SDS011;55274;43.060;25.618;2023-06-26T12:27:29;5.70;;;4.28;;
68353;SDS011;55274;43.060;25.618;2023-06-26T12:29:56;8.43;;;4.43;;
68353;SDS011;55274;43.060;25.618;2023-06-26T12:32:22;8.40;;;5.05;;
68353;SDS011;55274;43.060;25.618;2023-06-26T12:34:50;11.32;;;4.25;;
68353;SDS011;55274;43.060;25.618;2023-06-26T12:37:17;9.32;;;3.10;;
68353;SDS011;55274;43.060;25.618;2023-06-26T12:39:49;13.05;;;3.70;;
68353;SDS011;55274;43.060;25.618;2023-06-26T12:42:27;13.50;;;3.13;;
68353;SDS011;55274;43.060;25.618;2023-06-26T12:44:54;6.00;;;2.58;;
68353;SDS011;55274;43.060;25.618;2023-06-26T12:47:24;10.35;;;3.55;;
68353;SDS011;55274;43.060;25.618;2023-06-26T12:49:52;6.72;;;2.40;;
68353;SDS011;55274;43.060;25.618;2023-06-26T12:52:18;15.25;;;3.80;;
68353;SDS011;55274;43.060;25.618;2023-06-26T12:54:45;28.63;;;4.03;;
68353;SDS011;55274;43.060;25.618;2023-06-26T12:57:16;15.27;;;3.85;;
68353;SDS011;55274;43.060;25.618;2023-06-26T12:59:42;21.27;;;4.50;;
68353;SDS011;55274;43.060;25.618;2023-06-26T13:02:08;7.00;;;3.05;;
68353;SDS011;55274;43.060;25.618;2023-06-26T13:04:38;9.02;;;3.03;;
68353;SDS011;55274;43.060;25.618;2023-06-26T13:07:09;10.20;;;3.25;;
68353;SDS011;55274;43.060;25.618;2023-06-26T13:09:37;5.15;;;2.90;;
68353;SDS011;55274;43.060;25.618;2023-06-26T13:12:06;4.25;;;2.50;;
68353;SDS011;55274;43.060;25.618;2023-06-26T13:14:33;5.53;;;2.80;;
68353;SDS011;55274;43.060;25.618;2023-06-26T13:17:04;6.82;;;2.95;;
68353;SDS011;55274;43.060;25.618;2023-06-26T13:19:30;5.10;;;2.80;;
68353;SDS011;55274;43.060;25.618;2023-06-26T13:21:56;9.35;;;2.83;;
68353;SDS011;55274;43.060;25.618;2023-06-26T13:24:28;7.78;;;3.05;;
68353;SDS011;55274;43.060;25.618;2023-06-26T13:26:55;5.82;;;2.95;;
68353;SDS011;55274;43.060;25.618;2023-06-26T13:29:21;5.90;;;2.72;;
68353;SDS011;55274;43.060;25.618;2023-06-26T13:31:47;5.63;;;2.50;;
68353;SDS011;55274;43.060;25.618;2023-06-26T13:34:23;5.18;;;2.80;;
68353;SDS011;55274;43.060;25.618;2023-06-26T13:36:49;5.68;;;3.00;;
68353;SDS011;55274;43.060;25.618;2023-06-26T13:39:15;9.52;;;2.70;;
68353;SDS011;55274;43.060;25.618;2023-06-26T13:41:41;6.22;;;2.70;;
68353;SDS011;55274;43.060;25.618;2023-06-26T13:44:07;4.25;;;2.40;;
68353;SDS011;55274;43.060;25.618;2023-06-26T13:46:32;5.45;;;2.50;;
68353;SDS011;55274;43.060;25.618;2023-06-26T13:48:58;4.85;;;2.38;;
68353;SDS011;55274;43.060;25.618;2023-06-26T13:51:24;7.45;;;3.70;;
68353;SDS011;55274;43.060;25.618;2023-06-26T13:53:50;4.63;;;2.50;;
68353;SDS011;55274;43.060;25.618;2023-06-26T13:56:15;6.85;;;2.58;;
68353;SDS011;55274;43.060;25.618;2023-06-26T13:58:41;5.68;;;2.25;;
68353;SDS011;55274;43.060;25.618;2023-06-26T14:01:07;3.67;;;2.20;;
68353;SDS011;55274;43.060;25.618;2023-06-26T14:03:33;3.63;;;2.10;;
68353;SDS011;55274;43.060;25.618;2023-06-26T14:05:58;4.30;;;1.85;;
68353;SDS011;55274;43.060;25.618;2023-06-26T14:08:24;3.65;;;1.98;;
68353;SDS011;55274;43.060;25.618;2023-06-26T14:10:50;7.05;;;2.42;;
68353;SDS011;55274;43.060;25.618;2023-06-26T14:13:16;3.38;;;1.85;;
68353;SDS011;55274;43.060;25.618;2023-06-26T14:15:42;4.78;;;2.08;;
68353;SDS011;55274;43.060;25.618;2023-06-26T14:18:08;5.00;;;2.10;;
68353;SDS011;55274;43.060;25.618;2023-06-26T14:20:34;3.88;;;2.25;;
68353;SDS011;55274;43.060;25.618;2023-06-26T14:23:01;4.22;;;2.10;;
68353;SDS011;55274;43.060;25.618;2023-06-26T14:25:27;4.35;;;2.10;;
68353;SDS011;55274;43.060;25.618;2023-06-26T14:27:54;3.95;;;2.28;;
68353;SDS011;55274;43.060;25.618;2023-06-26T14:30:20;4.22;;;2.08;;
68353;SDS011;55274;43.060;25.618;2023-06-26T14:32:46;7.68;;;2.72;;
68353;SDS011;55274;43.060;25.618;2023-06-26T14:35:12;5.15;;;2.17;;
68353;SDS011;55274;43.060;25.618;2023-06-26T14:37:37;4.55;;;2.10;;
68353;SDS011;55274;43.060;25.618;2023-06-26T14:40:05;3.90;;;1.90;;
68353;SDS011;55274;43.060;25.618;2023-06-26T14:42:32;7.57;;;3.33;;
68353;SDS011;55274;43.060;25.618;2023-06-26T14:44:58;5.45;;;2.58;;
68353;SDS011;55274;43.060;25.618;2023-06-26T14:47:24;5.10;;;3.05;;
68353;SDS011;55274;43.060;25.618;2023-06-26T14:49:50;10.55;;;5.65;;
68353;SDS011;55274;43.060;25.618;2023-06-26T14:52:16;8.38;;;5.35;;
68353;SDS011;55274;43.060;25.618;2023-06-26T15:08:59;8.15;;;3.67;;
68353;SDS011;55274;43.060;25.618;2023-06-26T15:11:25;9.20;;;3.88;;
68353;SDS011;55274;43.060;25.618;2023-06-26T15:13:51;11.85;;;6.68;;
68353;SDS011;55274;43.060;25.618;2023-06-26T15:16:17;14.10;;;6.18;;
68353;SDS011;55274;43.060;25.618;2023-06-26T15:18:43;6.43;;;2.83;;
68353;SDS011;55274;43.060;25.618;2023-06-26T15:21:09;3.20;;;2.15;;
68353;SDS011;55274;43.060;25.618;2023-06-26T15:23:35;9.90;;;5.03;;